createdAt,value
2019-05-20T00:00:16.431Z,41.50
2019-05-20T00:02:46.127Z,42.81
2019-05-20T00:05:15.626Z,41.90
2019-05-20T00:07:45.070Z,42.24
2019-05-20T00:10:14.581Z,42.23
2019-05-20T00:12:44.245Z,42.78
2019-05-20T00:15:13.729Z,43.13
2019-05-20T00:17:43.322Z,43.25
2019-05-20T00:20:12.862Z,44.20
2019-05-20T00:22:42.474Z,44.76
2019-05-20T00:25:12.065Z,45.14
2019-05-20T00:27:41.580Z,45.87
2019-05-20T00:30:11.076Z,45.80
2019-05-20T00:32:42.330Z,46.12
2019-05-20T00:35:12.195Z,46.47
2019-05-20T00:37:41.716Z,46.73
2019-05-20T00:40:11.456Z,45.26
2019-05-20T00:42:41.208Z,44.66
2019-05-20T00:45:10.752Z,44.00
2019-05-20T00:47:40.191Z,43.68
2019-05-20T00:50:09.656Z,43.86
2019-05-20T00:52:39.098Z,44.35
2019-05-20T00:55:08.562Z,44.79
2019-05-20T00:57:38.107Z,45.37
2019-05-20T01:00:08.038Z,45.87
2019-05-20T01:02:37.460Z,46.41
2019-05-20T01:05:06.898Z,45.60
2019-05-20T01:07:36.313Z,44.35
2019-05-20T01:10:05.977Z,44.40
2019-05-20T01:12:35.401Z,43.93
2019-05-20T01:15:05.174Z,44.00
2019-05-20T01:17:34.632Z,44.47
2019-05-20T01:20:04.121Z,44.27
2019-05-20T01:22:33.566Z,44.26
2019-05-20T01:25:02.976Z,44.37
2019-05-20T01:27:32.428Z,44.00
2019-05-20T01:30:01.857Z,44.06
2019-05-20T01:32:31.416Z,43.74
2019-05-20T01:35:00.549Z,44.65
2019-05-20T01:37:29.987Z,43.53
2019-05-20T01:39:59.556Z,43.91
2019-05-20T01:42:29.134Z,43.88
2019-05-20T01:44:58.584Z,44.33
2019-05-20T01:47:28.270Z,45.05
2019-05-20T01:49:57.694Z,44.90
2019-05-20T01:52:27.160Z,44.76
2019-05-20T01:54:56.581Z,44.76
2019-05-20T01:57:26.032Z,45.16
2019-05-20T01:59:55.601Z,44.51
2019-05-20T02:02:25.235Z,44.42
2019-05-20T02:04:54.734Z,44.41
2019-05-20T02:07:24.243Z,44.79
2019-05-20T02:09:53.689Z,45.11
2019-05-20T02:12:23.124Z,45.44
2019-05-20T02:14:58.365Z,46.02
2019-05-20T02:17:27.795Z,46.74
2019-05-20T02:19:57.233Z,47.05
2019-05-20T02:22:26.673Z,46.98
2019-05-20T02:24:56.096Z,47.64
2019-05-20T02:27:25.526Z,48.07
2019-05-20T02:29:54.949Z,48.44
2019-05-20T02:32:24.420Z,48.52
2019-05-20T02:34:53.878Z,48.47
2019-05-20T02:37:23.286Z,48.13
2019-05-20T02:39:52.694Z,48.60
2019-05-20T02:42:22.140Z,48.49
2019-05-20T02:44:51.559Z,48.57
2019-05-20T02:47:20.999Z,48.31
2019-05-20T02:49:50.420Z,48.00
2019-05-20T02:52:19.870Z,47.26
2019-05-20T02:54:49.493Z,46.87
2019-05-20T02:57:18.918Z,46.49
2019-05-20T02:59:48.530Z,46.95
2019-05-20T03:02:18.103Z,46.75
2019-05-20T03:04:47.688Z,46.22
2019-05-20T03:07:17.223Z,47.02
2019-05-20T03:09:46.769Z,47.14
2019-05-20T03:12:16.269Z,47.47
2019-05-20T03:14:45.899Z,48.69
2019-05-20T03:17:15.384Z,48.44
2019-05-20T03:19:44.844Z,48.21
2019-05-20T03:22:14.400Z,48.29
2019-05-20T03:24:43.810Z,48.73
2019-05-20T03:27:13.365Z,48.98
2019-05-20T03:29:42.908Z,48.94
2019-05-20T03:32:12.377Z,48.91
2019-05-20T03:34:50.852Z,49.72
2019-05-20T03:37:13.132Z,49.23
2019-05-20T03:39:42.594Z,48.94
2019-05-20T03:42:12.242Z,50.14
2019-05-20T03:44:41.671Z,50.10
2019-05-20T03:47:11.284Z,51.29
2019-05-20T03:49:40.962Z,51.42
2019-05-20T03:52:10.391Z,50.09
2019-05-20T03:54:39.965Z,51.78
2019-05-20T03:57:09.439Z,51.86
2019-05-20T03:59:39.036Z,51.86
2019-05-20T04:02:08.622Z,52.80
2019-05-20T04:04:38.037Z,52.80
2019-05-20T04:07:07.478Z,52.46
2019-05-20T04:09:36.907Z,53.29
2019-05-20T04:12:06.580Z,54.55
2019-05-20T04:14:36.054Z,53.16
2019-05-20T04:17:05.487Z,52.92
2019-05-20T04:19:34.955Z,52.51
2019-05-20T04:22:04.380Z,53.41
2019-05-20T04:24:33.818Z,55.31
2019-05-20T04:27:03.252Z,57.46
2019-05-20T04:29:32.698Z,57.89
2019-05-20T04:32:02.135Z,55.22
2019-05-20T04:34:31.686Z,56.52
2019-05-20T04:37:01.288Z,54.96
2019-05-20T04:39:30.728Z,53.78
2019-05-20T04:42:00.169Z,52.57
2019-05-20T04:44:29.636Z,52.40
2019-05-20T04:46:59.074Z,49.86
2019-05-20T04:49:28.703Z,51.36
2019-05-20T04:51:58.245Z,55.29
2019-05-20T04:54:27.786Z,56.76
2019-05-20T04:56:57.258Z,54.22
2019-05-20T04:59:26.900Z,53.53
2019-05-20T05:01:56.326Z,53.20
2019-05-20T05:04:25.924Z,51.22
2019-05-20T05:06:55.330Z,51.47
2019-05-20T05:09:24.922Z,50.00
2019-05-20T05:11:54.597Z,48.21
2019-05-20T05:14:24.088Z,47.13
2019-05-20T05:16:53.602Z,46.24
2019-05-20T05:19:23.144Z,41.97
2019-05-20T05:21:52.820Z,42.11
2019-05-20T05:24:22.240Z,43.36
2019-05-20T05:26:51.719Z,43.10
2019-05-20T05:29:21.227Z,43.68
2019-05-20T05:31:50.828Z,44.53
2019-05-20T05:34:20.329Z,46.65
2019-05-20T05:36:49.884Z,46.96
2019-05-20T05:39:19.359Z,42.98
2019-05-20T05:41:48.997Z,40.06
2019-05-20T05:44:18.675Z,37.46
2019-05-20T05:46:48.261Z,36.48
2019-05-20T05:49:17.889Z,37.47
2019-05-20T05:51:47.336Z,37.64
2019-05-20T05:54:16.769Z,36.39
2019-05-20T05:56:46.323Z,31.76
2019-05-20T05:59:15.872Z,30.13
2019-05-20T06:01:45.523Z,34.16
2019-05-20T06:04:15.157Z,33.15
2019-05-20T06:06:44.739Z,32.62
2019-05-20T06:09:14.280Z,35.21
2019-05-20T06:11:43.819Z,33.04
2019-05-20T06:14:13.280Z,32.43
2019-05-20T06:16:42.863Z,34.78
2019-05-20T06:19:12.302Z,34.16
2019-05-20T06:21:41.970Z,32.75
2019-05-20T06:24:11.557Z,31.28
2019-05-20T06:26:40.956Z,31.82
2019-05-20T06:29:10.410Z,32.93
2019-05-20T06:31:39.839Z,34.12
2019-05-20T06:34:09.280Z,35.31
2019-05-20T06:36:42.974Z,37.04
2019-05-20T06:39:13.364Z,37.10
2019-05-20T06:41:43.135Z,37.40
2019-05-20T06:44:12.726Z,37.60
2019-05-20T06:46:42.136Z,38.45
2019-05-20T06:49:11.640Z,38.77
2019-05-20T06:51:41.081Z,38.19
2019-05-20T06:54:10.589Z,35.80
2019-05-20T06:56:40.433Z,34.17
2019-05-20T06:59:09.962Z,31.40
2019-05-20T07:01:39.380Z,30.95
2019-05-20T07:04:08.924Z,29.27
2019-05-20T07:06:46.880Z,27.82
2019-05-20T07:09:09.873Z,27.82
2019-05-20T07:11:39.331Z,30.03
2019-05-20T07:14:08.759Z,29.83
2019-05-20T07:16:38.295Z,29.24
2019-05-20T07:19:07.721Z,28.30
2019-05-20T07:21:37.127Z,28.36
2019-05-20T07:24:06.605Z,27.96
2019-05-20T07:26:36.065Z,28.32
2019-05-20T07:29:05.512Z,28.71
2019-05-20T07:31:35.086Z,28.58
2019-05-20T07:34:04.660Z,28.73
2019-05-20T07:36:34.100Z,29.44
2019-05-20T07:39:04.151Z,28.94
2019-05-20T07:41:33.732Z,29.99
2019-05-20T07:44:03.726Z,28.73
2019-05-20T07:46:33.353Z,29.96
2019-05-20T07:49:02.942Z,29.08
2019-05-20T07:51:32.478Z,30.37
2019-05-20T07:54:02.172Z,29.01
2019-05-20T07:56:34.922Z,28.36
2019-05-20T07:59:04.892Z,29.30
2019-05-20T08:01:34.302Z,29.30
2019-05-20T08:04:03.809Z,29.25
2019-05-20T08:06:33.230Z,29.52
2019-05-20T08:09:02.698Z,28.17
2019-05-20T08:11:32.220Z,28.17
2019-05-20T08:14:01.723Z,28.24
2019-05-20T08:16:31.279Z,28.04
2019-05-20T08:19:00.874Z,28.03
2019-05-20T08:21:30.516Z,28.04
2019-05-20T08:23:59.976Z,28.04
2019-05-20T08:26:29.443Z,28.80
2019-05-20T08:28:59.033Z,28.81
2019-05-20T08:31:28.520Z,27.49
2019-05-20T08:33:58.801Z,28.72
2019-05-20T08:36:28.245Z,28.63
2019-05-20T08:38:57.680Z,28.97
2019-05-20T08:41:27.415Z,29.81
2019-05-20T08:43:57.084Z,30.43
2019-05-20T08:46:26.567Z,28.54
2019-05-20T08:48:56.049Z,28.54
2019-05-20T08:51:25.703Z,27.47
2019-05-20T08:53:55.151Z,29.56
2019-05-20T08:56:24.575Z,29.93
2019-05-20T08:58:54.024Z,28.95
2019-05-20T09:01:23.453Z,28.27
2019-05-20T09:03:52.885Z,27.05
2019-05-20T09:06:22.309Z,29.42
2019-05-20T09:08:51.719Z,29.06
2019-05-20T09:11:21.162Z,28.97
2019-05-20T09:13:50.601Z,29.03
2019-05-20T09:16:20.011Z,27.17
2019-05-20T09:18:49.436Z,27.57
2019-05-20T09:21:18.844Z,27.64
2019-05-20T09:23:48.271Z,30.64
2019-05-20T09:26:17.709Z,29.62
2019-05-20T09:28:47.138Z,27.91
2019-05-20T09:31:16.601Z,30.59
2019-05-20T09:33:46.029Z,30.09
2019-05-20T09:36:15.449Z,29.59
2019-05-20T09:38:44.932Z,29.19
2019-05-20T09:41:15.627Z,28.56
2019-05-20T09:43:45.245Z,26.30
2019-05-20T09:46:14.774Z,25.69
2019-05-20T09:48:44.261Z,26.88
2019-05-20T09:51:13.690Z,27.47
2019-05-20T09:53:43.118Z,26.00
2019-05-20T09:56:12.548Z,25.95
2019-05-20T09:58:41.991Z,27.00
2019-05-20T10:01:11.575Z,27.84
2019-05-20T10:03:41.103Z,29.50
2019-05-20T10:06:10.736Z,27.12
2019-05-20T10:08:44.752Z,26.53
2019-05-20T10:11:11.535Z,25.17
2019-05-20T10:13:41.114Z,27.00
2019-05-20T10:16:10.751Z,25.83
2019-05-20T10:18:40.177Z,25.15
2019-05-20T10:21:09.613Z,24.52
2019-05-20T10:23:39.152Z,23.40
2019-05-20T10:26:08.693Z,22.81
2019-05-20T10:28:41.854Z,23.61
2019-05-20T10:31:09.316Z,23.07
2019-05-20T10:33:38.786Z,25.25
2019-05-20T10:36:08.235Z,25.38
2019-05-20T10:38:54.768Z,23.64
2019-05-20T10:41:08.804Z,24.54
2019-05-20T10:43:38.217Z,24.28
2019-05-20T10:46:07.709Z,23.82
2019-05-20T10:48:37.152Z,22.30
2019-05-20T10:51:10.235Z,22.54
2019-05-20T10:53:37.717Z,22.91
2019-05-20T10:56:07.268Z,23.15
2019-05-20T10:58:36.700Z,22.22
2019-05-20T11:01:06.224Z,23.17
2019-05-20T11:03:35.696Z,23.43
2019-05-20T11:06:05.538Z,22.39
2019-05-20T11:08:35.123Z,21.94
2019-05-20T11:11:04.649Z,23.71
2019-05-20T11:13:34.076Z,20.77
2019-05-20T11:16:03.520Z,22.72
2019-05-20T11:18:32.946Z,22.63
2019-05-20T11:21:02.403Z,22.72
2019-05-20T11:23:31.834Z,22.80
2019-05-20T11:26:01.262Z,22.39
2019-05-20T11:28:30.706Z,23.52
2019-05-20T11:31:00.121Z,22.97
2019-05-20T11:33:29.523Z,23.32
2019-05-20T11:35:58.962Z,22.48
2019-05-20T11:38:28.488Z,24.71
2019-05-20T11:40:57.960Z,22.99
2019-05-20T11:43:27.431Z,23.73
2019-05-20T11:45:56.863Z,22.62
2019-05-20T11:48:26.328Z,22.81
2019-05-20T11:50:55.762Z,24.16
2019-05-20T11:53:25.555Z,23.25
2019-05-20T11:55:55.053Z,23.57
2019-05-20T11:58:24.485Z,24.05
2019-05-20T12:00:53.937Z,24.32
2019-05-20T12:03:23.372Z,25.34
2019-05-20T12:05:52.822Z,23.91
2019-05-20T12:08:22.260Z,24.25
2019-05-20T12:10:51.994Z,25.19
2019-05-20T12:13:21.627Z,26.82
2019-05-20T12:15:51.050Z,24.24
2019-05-20T12:18:20.524Z,22.53
2019-05-20T12:20:49.945Z,24.16
2019-05-20T12:23:19.521Z,22.98
2019-05-20T12:25:48.951Z,23.31
2019-05-20T12:28:18.514Z,23.73
2019-05-20T12:30:47.942Z,23.91
2019-05-20T12:33:19.339Z,24.18
2019-05-20T12:35:48.673Z,24.73
2019-05-20T12:38:18.151Z,24.07
2019-05-20T12:40:47.649Z,23.65
2019-05-20T12:43:17.134Z,24.21
2019-05-20T12:45:46.564Z,23.39
2019-05-20T12:48:15.988Z,23.59
2019-05-20T12:50:45.445Z,24.12
2019-05-20T12:53:14.860Z,25.08
2019-05-20T12:55:44.443Z,23.98
2019-05-20T12:58:14.081Z,23.77
2019-05-20T13:00:43.601Z,23.34
2019-05-20T13:03:13.008Z,23.87
2019-05-20T13:05:42.432Z,24.77
2019-05-20T13:08:11.870Z,24.69
2019-05-20T13:10:41.296Z,23.24
2019-05-20T13:13:10.807Z,25.25
2019-05-20T13:15:40.245Z,26.02
2019-05-20T13:18:09.669Z,25.82
2019-05-20T13:20:39.121Z,26.27
2019-05-20T13:23:11.188Z,26.49
2019-05-20T13:25:39.753Z,26.25
2019-05-20T13:28:09.207Z,26.79
2019-05-20T13:30:38.697Z,27.42
2019-05-20T13:33:08.161Z,26.59
2019-05-20T13:35:37.577Z,26.84
2019-05-20T13:38:07.018Z,26.52
2019-05-20T13:40:46.367Z,26.72
2019-05-20T13:43:07.738Z,26.60
2019-05-20T13:45:37.174Z,26.35
2019-05-20T13:48:06.627Z,25.66
2019-05-20T13:50:36.121Z,25.49
2019-05-20T13:53:05.551Z,26.05
2019-05-20T13:55:34.951Z,26.83
2019-05-20T13:58:04.396Z,28.45
2019-05-20T14:00:33.818Z,29.80
2019-05-20T14:03:03.241Z,31.36
2019-05-20T14:05:32.652Z,32.43
2019-05-20T14:08:03.114Z,33.83
2019-05-20T14:10:32.628Z,34.79
2019-05-20T14:13:02.084Z,35.45
2019-05-20T14:15:31.496Z,36.29
2019-05-20T14:18:00.957Z,35.74
2019-05-20T14:20:30.387Z,36.03
2019-05-20T14:22:59.824Z,36.78
2019-05-20T14:25:29.464Z,38.26
2019-05-20T14:27:58.940Z,39.00
2019-05-20T14:30:28.369Z,40.24
2019-05-20T14:32:57.799Z,45.07
2019-05-20T14:35:27.224Z,50.02
2019-05-20T14:37:56.662Z,55.80
2019-05-20T14:40:26.131Z,59.39
2019-05-20T14:42:55.535Z,62.92
2019-05-20T14:45:24.989Z,64.78
2019-05-20T14:47:54.559Z,65.81
2019-05-20T14:50:25.033Z,68.90
2019-05-20T14:52:56.462Z,72.84
2019-05-20T14:55:26.653Z,77.44
2019-05-20T14:57:57.362Z,83.90
2019-05-20T15:00:29.113Z,87.31
2019-05-20T15:02:59.225Z,92.88
2019-05-20T15:05:29.780Z,98.15
2019-05-20T15:08:01.032Z,100.00
2019-05-20T15:10:31.852Z,100.00
2019-05-20T15:13:01.732Z,100.00
2019-05-20T15:15:31.641Z,100.00
2019-05-20T15:18:01.549Z,100.00
2019-05-20T15:20:32.111Z,100.00
2019-05-20T15:23:02.293Z,100.00
2019-05-20T15:25:32.497Z,100.00
2019-05-20T15:28:02.525Z,100.00
2019-05-20T15:30:32.980Z,100.00
2019-05-20T15:33:03.347Z,100.00
2019-05-20T15:35:34.085Z,100.00
2019-05-20T15:38:04.704Z,100.00
2019-05-20T15:40:35.450Z,100.00
2019-05-20T15:43:04.958Z,100.00
2019-05-20T15:45:34.516Z,100.00
2019-05-20T15:48:03.951Z,100.00
2019-05-20T15:50:33.537Z,100.00
2019-05-20T15:53:03.622Z,100.00
2019-05-20T15:55:33.148Z,100.00
2019-05-20T15:58:02.574Z,100.00
2019-05-20T16:00:32.270Z,100.00
2019-05-20T16:03:01.778Z,100.00
2019-05-20T16:05:31.195Z,100.00
2019-05-20T16:08:00.656Z,100.00
2019-05-20T16:10:29.172Z,100.00
2019-05-20T16:12:58.814Z,100.00
2019-05-20T16:15:28.240Z,100.00
2019-05-20T16:17:57.677Z,100.00
2019-05-20T16:20:27.143Z,100.00
2019-05-20T16:22:56.615Z,100.00
2019-05-20T16:25:26.013Z,100.00
2019-05-20T16:27:55.598Z,100.00
2019-05-20T16:30:25.043Z,100.00
2019-05-20T16:32:54.607Z,100.00
2019-05-20T16:35:24.175Z,100.00
2019-05-20T16:37:53.738Z,100.00
2019-05-20T16:40:23.169Z,100.00
2019-05-20T16:42:52.632Z,100.00
2019-05-20T16:45:22.193Z,100.00
2019-05-20T16:47:51.879Z,100.00
2019-05-20T16:50:21.313Z,100.00
2019-05-20T16:52:50.866Z,100.00
2019-05-20T16:55:20.321Z,100.00
2019-05-20T16:57:49.831Z,100.00
2019-05-20T17:00:30.820Z,100.00
2019-05-20T17:02:50.438Z,100.00
2019-05-20T17:05:19.882Z,100.00
2019-05-20T17:07:49.318Z,100.00
2019-05-20T17:10:19.087Z,100.00
2019-05-20T17:12:48.635Z,100.00
2019-05-20T17:15:18.102Z,100.00
2019-05-20T17:17:47.598Z,100.00
2019-05-20T17:20:17.122Z,100.00
2019-05-20T17:22:46.560Z,100.00
2019-05-20T17:25:15.993Z,100.00
2019-05-20T17:27:45.415Z,100.00
2019-05-20T17:30:14.869Z,100.00
2019-05-20T17:32:44.370Z,100.00
2019-05-20T17:35:14.034Z,100.00
2019-05-20T17:37:43.563Z,100.00
2019-05-20T17:40:13.066Z,100.00
2019-05-20T17:42:42.523Z,100.00
2019-05-20T17:45:12.067Z,100.00
2019-05-20T17:47:41.600Z,100.00
2019-05-20T17:50:11.532Z,100.00
2019-05-20T17:52:41.129Z,100.00
2019-05-20T17:55:10.566Z,100.00
2019-05-20T17:57:40.090Z,100.00
2019-05-20T18:00:11.229Z,100.00
2019-05-20T18:02:40.656Z,100.00
2019-05-20T18:05:10.102Z,100.00
2019-05-20T18:07:39.550Z,100.00
2019-05-20T18:10:09.791Z,100.00
2019-05-20T18:12:39.310Z,100.00
2019-05-20T18:15:08.934Z,100.00
2019-05-20T18:17:38.842Z,100.00
2019-05-20T18:20:08.407Z,100.00
2019-05-20T18:22:37.947Z,100.00
2019-05-20T18:25:07.528Z,100.00
2019-05-20T18:27:37.109Z,100.00
2019-05-20T18:30:06.700Z,100.00
2019-05-20T18:32:38.537Z,100.00
2019-05-20T18:35:07.382Z,100.00
2019-05-20T18:37:36.875Z,100.00
2019-05-20T18:40:14.100Z,100.00
2019-05-20T18:42:37.509Z,100.00
2019-05-20T18:45:07.187Z,100.00
2019-05-20T18:47:36.615Z,100.00
2019-05-20T18:50:06.707Z,100.00
2019-05-20T18:52:36.203Z,100.00
2019-05-20T18:55:05.781Z,100.00
2019-05-20T18:57:35.253Z,100.00
2019-05-20T19:00:05.301Z,100.00
2019-05-20T19:02:35.128Z,100.00
2019-05-20T19:05:05.026Z,100.00
2019-05-20T19:07:34.459Z,100.00
2019-05-20T19:10:03.899Z,100.00
2019-05-20T19:12:33.375Z,100.00
2019-05-20T19:15:02.879Z,100.00
2019-05-20T19:17:32.389Z,100.00
2019-05-20T19:20:01.805Z,100.00
2019-05-20T19:22:31.205Z,100.00
2019-05-20T19:25:00.959Z,100.00
2019-05-20T19:27:31.097Z,100.00
2019-05-20T19:30:00.511Z,100.00
2019-05-20T19:32:31.041Z,100.00
2019-05-20T19:35:00.479Z,100.00
2019-05-20T19:37:29.899Z,100.00
2019-05-20T19:39:59.317Z,100.00
2019-05-20T19:42:28.807Z,100.00
2019-05-20T19:44:58.239Z,100.00
2019-05-20T19:47:27.676Z,100.00
2019-05-20T19:49:57.086Z,100.00
2019-05-20T19:52:26.521Z,100.00
2019-05-20T19:54:55.969Z,100.00
2019-05-20T19:57:25.449Z,100.00
2019-05-20T19:59:54.927Z,100.00
2019-05-20T20:02:24.394Z,100.00
2019-05-20T20:04:53.880Z,100.00
2019-05-20T20:07:23.280Z,100.00
2019-05-20T20:09:52.700Z,100.00
2019-05-20T20:12:22.117Z,100.00
2019-05-20T20:14:51.573Z,100.00
2019-05-20T20:17:20.986Z,100.00
2019-05-20T20:19:50.414Z,100.00
2019-05-20T20:22:19.836Z,100.00
2019-05-20T20:24:49.975Z,100.00
2019-05-20T20:27:19.413Z,100.00
2019-05-20T20:29:48.846Z,100.00
2019-05-20T20:32:18.286Z,100.00
2019-05-20T20:34:47.697Z,100.00
2019-05-20T20:37:17.120Z,100.00
2019-05-20T20:39:46.549Z,100.00
2019-05-20T20:42:15.980Z,100.00
2019-05-20T20:44:45.397Z,100.00
2019-05-20T20:47:14.874Z,100.00
2019-05-20T20:49:44.392Z,100.00
2019-05-20T20:52:13.834Z,100.00
2019-05-20T20:54:43.260Z,100.00
2019-05-20T20:57:12.713Z,100.00
2019-05-20T20:59:42.132Z,100.00
2019-05-20T21:02:11.574Z,100.00
2019-05-20T21:04:41.083Z,100.00
2019-05-20T21:07:10.512Z,100.00
2019-05-20T21:09:39.936Z,100.00
2019-05-20T21:12:09.360Z,100.00
2019-05-20T21:14:38.832Z,100.00
2019-05-20T21:17:08.239Z,100.00
2019-05-20T21:19:37.656Z,100.00
2019-05-20T21:22:07.077Z,100.00
2019-05-20T21:24:36.499Z,100.00
2019-05-20T21:27:05.922Z,100.00
2019-05-20T21:29:35.371Z,100.00
2019-05-20T21:32:04.785Z,100.00
2019-05-20T21:34:34.211Z,100.00
2019-05-20T21:37:03.641Z,100.00
2019-05-20T21:39:33.071Z,100.00
2019-05-20T21:42:02.617Z,100.00
2019-05-20T21:44:32.041Z,100.00
2019-05-20T21:47:01.456Z,100.00
2019-05-20T21:49:30.904Z,100.00
2019-05-20T21:52:00.318Z,100.00
2019-05-20T21:54:29.752Z,100.00
2019-05-20T21:56:59.176Z,100.00
2019-05-20T21:59:28.614Z,100.00
2019-05-20T22:01:58.058Z,100.00
2019-05-20T22:04:27.591Z,100.00
2019-05-20T22:06:57.137Z,100.00
2019-05-20T22:09:26.584Z,100.00
2019-05-20T22:11:56.006Z,100.00
2019-05-20T22:14:25.486Z,100.00
2019-05-20T22:16:55.061Z,100.00
2019-05-20T22:19:24.497Z,100.00
2019-05-20T22:22:21.936Z,100.00
2019-05-20T22:24:51.603Z,100.00
2019-05-20T22:27:21.130Z,100.00
2019-05-20T22:29:50.662Z,100.00
2019-05-20T22:32:20.305Z,100.00
2019-05-20T22:34:53.759Z,100.00
2019-05-20T22:37:21.035Z,100.00
2019-05-20T22:39:50.523Z,100.00
2019-05-20T22:42:20.150Z,100.00
2019-05-20T22:44:49.587Z,100.00
2019-05-20T22:47:19.118Z,100.00
2019-05-20T22:49:48.600Z,100.00
2019-05-20T22:52:18.027Z,100.00
2019-05-20T22:54:47.503Z,100.00
2019-05-20T22:57:17.038Z,100.00
2019-05-20T22:59:46.611Z,100.00
2019-05-20T23:02:16.083Z,100.00
2019-05-20T23:04:45.587Z,100.00
2019-05-20T23:07:15.163Z,100.00
2019-05-20T23:09:44.685Z,100.00
2019-05-20T23:12:14.232Z,100.00
2019-05-20T23:14:43.695Z,100.00
2019-05-20T23:17:13.317Z,100.00
2019-05-20T23:19:42.843Z,100.00
2019-05-20T23:22:12.282Z,100.00
2019-05-20T23:24:41.716Z,100.00
2019-05-20T23:27:11.172Z,100.00
2019-05-20T23:29:40.572Z,100.00
2019-05-20T23:32:10.003Z,100.00
2019-05-20T23:34:39.449Z,100.00
2019-05-20T23:37:08.880Z,100.00
2019-05-20T23:39:38.302Z,100.00
2019-05-20T23:42:07.733Z,100.00
2019-05-20T23:44:37.150Z,100.00
2019-05-20T23:47:06.604Z,100.00
2019-05-20T23:49:36.011Z,100.00
2019-05-20T23:52:05.489Z,100.00
2019-05-20T23:54:34.920Z,100.00
2019-05-20T23:57:04.361Z,100.00
2019-05-20T23:59:33.918Z,100.00
